Time;durP1;ratioP1;P1;durP2;ratioP2;P2;SDS_P1;SDS_P2;PMS_P1;PMS_P2;Temp;Humidity;BMP_temperature;BMP_pressure;BME280_temperature;BME280_humidity;BME280_pressure;Samples;Min_cycle;Max_cycle;Signal;HPM_P1;HPM_P2
2022/06/21 00:01:34;;;;;;;7.97;3.50;;;;;;;;;;5230845;28;20037;-75
2022/06/21 00:04:05;;;;;;;7.90;3.90;;;;;;;;;;5232778;28;20110;-74
2022/06/21 00:06:36;;;;;;;11.07;3.95;;;;;;;;;;5229657;28;20025;-75
2022/06/21 00:09:10;;;;;;;10.27;3.60;;;;;;;;;;5228769;28;20026;-75
2022/06/21 00:11:41;;;;;;;7.68;3.80;;;;;;;;;;5230553;28;20468;-75
2022/06/21 00:14:13;;;;;;;7.57;3.60;;;;;;;;;;5228660;28;20022;-75
2022/06/21 00:16:44;;;;;;;8.87;3.90;;;;;;;;;;5228382;28;20571;-75
2022/06/21 00:19:19;;;;;;;6.53;3.83;;;;;;;;;;5229543;28;20384;-75
2022/06/21 00:21:50;;;;;;;9.63;3.87;;;;;;;;;;5228758;28;20090;-75
2022/06/21 00:24:22;;;;;;;9.10;3.97;;;;;;;;;;5230372;28;20025;-75
2022/06/21 00:26:53;;;;;;;8.90;3.63;;;;;;;;;;5230009;28;20497;-75
2022/06/21 00:29:24;;;;;;;9.07;3.90;;;;;;;;;;5229280;28;20072;-75
2022/06/21 00:31:55;;;;;;;10.70;4.43;;;;;;;;;;5229147;28;20021;-75
2022/06/21 00:34:26;;;;;;;8.50;4.10;;;;;;;;;;5230006;28;20021;-74
2022/06/21 00:37:00;;;;;;;10.30;4.37;;;;;;;;;;5230591;28;20052;-75
2022/06/21 00:39:31;;;;;;;9.63;4.43;;;;;;;;;;5230271;28;20480;-75
2022/06/21 00:42:11;;;;;;;8.67;4.63;;;;;;;;;;5229162;28;20064;-75
2022/06/21 00:44:45;;;;;;;12.07;4.67;;;;;;;;;;5227139;28;20024;-75
2022/06/21 00:47:18;;;;;;;8.52;4.60;;;;;;;;;;5229837;28;20061;-75
2022/06/21 00:49:54;;;;;;;10.40;4.50;;;;;;;;;;5227984;28;20479;-74
2022/06/21 00:52:30;;;;;;;8.03;4.07;;;;;;;;;;5230342;28;20108;-75
2022/06/21 00:55:05;;;;;;;8.53;5.00;;;;;;;;;;5227499;28;20029;-76
2022/06/21 00:57:40;;;;;;;8.00;3.97;;;;;;;;;;5228298;28;20082;-75
2022/06/21 01:00:32;;;;;;;9.57;5.00;;;;;;;;;;5229302;28;20203;-75
2022/06/21 01:03:12;;;;;;;9.93;3.70;;;;;;;;;;5228564;28;20041;-75
2022/06/21 01:05:44;;;;;;;7.70;3.93;;;;;;;;;;5227755;28;20029;-75
2022/06/21 01:08:19;;;;;;;11.57;4.37;;;;;;;;;;5227713;28;20546;-75
2022/06/21 01:10:53;;;;;;;9.97;4.63;;;;;;;;;;5229244;28;20059;-75
2022/06/21 01:13:27;;;;;;;8.90;5.43;;;;;;;;;;5229555;28;20988;-75
2022/06/21 01:15:59;;;;;;;13.03;6.07;;;;;;;;;;5230771;28;20033;-75
2022/06/21 01:18:30;;;;;;;12.37;5.47;;;;;;;;;;5229554;28;20380;-75
2022/06/21 01:21:02;;;;;;;13.07;6.20;;;;;;;;;;5227960;28;20021;-74
2022/06/21 01:23:36;;;;;;;14.40;6.10;;;;;;;;;;5229087;28;20048;-74
2022/06/21 01:26:26;;;;;;;10.60;5.78;;;;;;;;;;5231641;28;20502;-74
2022/06/21 01:28:58;;;;;;;11.27;6.57;;;;;;;;;;5228220;28;20025;-74
2022/06/21 01:31:30;;;;;;;16.07;6.80;;;;;;;;;;5227489;28;20034;-75
2022/06/21 01:34:01;;;;;;;15.67;6.30;;;;;;;;;;5228669;28;20483;-75
2022/06/21 01:36:35;;;;;;;14.10;6.03;;;;;;;;;;5227831;28;20029;-74
2022/06/21 01:39:09;;;;;;;12.60;6.72;;;;;;;;;;5227999;28;20427;-74
2022/06/21 01:41:43;;;;;;;14.48;5.90;;;;;;;;;;5228915;28;20056;-74
2022/06/21 01:44:34;;;;;;;14.40;5.97;;;;;;;;;;5228579;28;21120;-75
2022/06/21 01:47:08;;;;;;;10.90;5.83;;;;;;;;;;5224522;28;20037;-74
2022/06/21 01:49:45;;;;;;;12.77;6.95;;;;;;;;;;5227035;28;20052;-74
2022/06/21 01:52:19;;;;;;;12.73;6.03;;;;;;;;;;5227071;28;20072;-74
2022/06/21 01:54:54;;;;;;;10.07;5.20;;;;;;;;;;5226598;28;20029;-74
2022/06/21 01:57:26;;;;;;;11.30;5.33;;;;;;;;;;5228857;28;20021;-74
2022/06/21 02:00:03;;;;;;;9.67;5.03;;;;;;;;;;5226728;28;20025;-74
2022/06/21 02:02:49;;;;;;;10.90;5.57;;;;;;;;;;5232121;28;20017;-74
2022/06/21 02:05:22;;;;;;;13.60;5.67;;;;;;;;;;5230710;28;20025;-74
2022/06/21 02:07:56;;;;;;;9.83;5.43;;;;;;;;;;5230944;28;20068;-74
2022/06/21 02:10:30;;;;;;;8.73;4.85;;;;;;;;;;5232626;28;20033;-74
2022/06/21 02:13:11;;;;;;;15.70;6.45;;;;;;;;;;5232552;28;21040;-74
2022/06/21 02:15:44;;;;;;;11.43;5.53;;;;;;;;;;5211275;28;20273;-74
2022/06/21 02:18:16;;;;;;;7.50;5.57;;;;;;;;;;5230133;28;20057;-74
2022/06/21 02:21:00;;;;;;;12.30;5.30;;;;;;;;;;5231541;28;20052;-74
2022/06/21 02:23:31;;;;;;;14.10;5.53;;;;;;;;;;5232609;28;20029;-74
2022/06/21 02:26:02;;;;;;;10.73;5.60;;;;;;;;;;5232206;28;20021;-75
2022/06/21 02:28:33;;;;;;;15.13;5.80;;;;;;;;;;5231936;28;20094;-74
2022/06/21 02:31:05;;;;;;;10.43;5.57;;;;;;;;;;5232837;28;20547;-74
2022/06/21 02:33:37;;;;;;;11.67;5.67;;;;;;;;;;5230694;28;20593;-74
2022/06/21 02:36:12;;;;;;;12.87;5.50;;;;;;;;;;5231408;28;20357;-74
2022/06/21 02:38:55;;;;;;;8.90;5.47;;;;;;;;;;5231893;28;20480;-74
2022/06/21 02:41:29;;;;;;;11.70;5.63;;;;;;;;;;5230799;28;20380;-74
2022/06/21 02:44:12;;;;;;;13.27;5.65;;;;;;;;;;5229750;28;20018;-74
2022/06/21 02:46:49;;;;;;;11.63;5.07;;;;;;;;;;5232015;28;20056;-74
2022/06/21 02:49:30;;;;;;;12.20;5.73;;;;;;;;;;5229741;28;20022;-75
2022/06/21 02:52:08;;;;;;;12.20;5.33;;;;;;;;;;5231592;28;20518;-75
2022/06/21 02:54:42;;;;;;;10.57;5.93;;;;;;;;;;5232209;28;20656;-75
2022/06/21 02:57:20;;;;;;;11.63;5.40;;;;;;;;;;5230665;28;20547;-75
2022/06/21 02:59:52;;;;;;;10.93;5.50;;;;;;;;;;5232393;28;20028;-75
2022/06/21 03:02:25;;;;;;;9.90;5.20;;;;;;;;;;5231425;28;20028;-75
2022/06/21 03:04:57;;;;;;;11.43;5.67;;;;;;;;;;5231631;28;20083;-75
2022/06/21 03:07:32;;;;;;;13.50;5.67;;;;;;;;;;5231660;28;20049;-75
2022/06/21 03:10:03;;;;;;;10.33;5.77;;;;;;;;;;5229433;28;20045;-75
2022/06/21 03:12:35;;;;;;;11.67;5.73;;;;;;;;;;5231242;28;20479;-75
2022/06/21 03:15:08;;;;;;;14.90;6.37;;;;;;;;;;5231882;28;20067;-75
2022/06/21 03:17:42;;;;;;;12.20;5.93;;;;;;;;;;5230640;28;20017;-75
2022/06/21 03:20:16;;;;;;;10.55;5.30;;;;;;;;;;5231152;28;20033;-75
2022/06/21 03:22:49;;;;;;;12.33;6.33;;;;;;;;;;5228966;28;20075;-75
2022/06/21 03:25:22;;;;;;;10.73;6.03;;;;;;;;;;5230941;28;20029;-75
2022/06/21 03:27:55;;;;;;;14.70;6.57;;;;;;;;;;5229612;28;20025;-75
2022/06/21 03:30:28;;;;;;;13.03;7.00;;;;;;;;;;5231675;28;20041;-75
2022/06/21 03:33:00;;;;;;;12.65;6.65;;;;;;;;;;5230806;28;20021;-75
2022/06/21 03:35:33;;;;;;;15.90;6.47;;;;;;;;;;5228482;28;20024;-75
2022/06/21 03:38:04;;;;;;;12.73;6.17;;;;;;;;;;5230000;28;20028;-75
2022/06/21 03:43:31;;;;;;;12.50;6.00;;;;;;;;;;5211594;28;20042;-75
2022/06/21 03:46:07;;;;;;;12.87;5.97;;;;;;;;;;5211806;28;20440;-75
2022/06/21 03:49:00;;;;;;;12.33;6.97;;;;;;;;;;5229439;28;20495;-75
2022/06/21 03:51:39;;;;;;;16.17;7.10;;;;;;;;;;5231417;28;20044;-75
2022/06/21 03:54:20;;;;;;;11.60;6.73;;;;;;;;;;5230255;28;20076;-75
2022/06/21 03:57:02;;;;;;;11.13;7.27;;;;;;;;;;5230582;28;20017;-75
2022/06/21 03:59:43;;;;;;;10.93;6.70;;;;;;;;;;5230751;28;20059;-75
2022/06/21 04:02:17;;;;;;;13.17;6.87;;;;;;;;;;5230649;28;20132;-74
2022/06/21 04:04:49;;;;;;;13.38;6.72;;;;;;;;;;5227769;28;20032;-74
2022/06/21 04:07:27;;;;;;;10.90;7.30;;;;;;;;;;5228686;28;20037;-74
2022/06/21 04:09:58;;;;;;;12.83;7.07;;;;;;;;;;5229468;28;20037;-74
2022/06/21 04:12:35;;;;;;;15.10;8.00;;;;;;;;;;5231231;28;20021;-74
2022/06/21 04:15:12;;;;;;;13.03;7.63;;;;;;;;;;5230415;28;20036;-74
2022/06/21 04:18:06;;;;;;;12.80;7.97;;;;;;;;;;5229687;28;20021;-74
2022/06/21 04:20:41;;;;;;;14.10;8.20;;;;;;;;;;5229081;28;20021;-74
2022/06/21 04:23:17;;;;;;;13.10;8.27;;;;;;;;;;5228952;28;20053;-74
2022/06/21 04:25:52;;;;;;;13.07;8.20;;;;;;;;;;5208328;28;20030;-74
2022/06/21 04:28:29;;;;;;;17.03;8.20;;;;;;;;;;5231327;28;20109;-74
2022/06/21 04:31:16;;;;;;;14.93;7.70;;;;;;;;;;5232041;28;20120;-74
2022/06/21 04:33:56;;;;;;;18.07;9.20;;;;;;;;;;5229340;28;20029;-74
2022/06/21 04:36:36;;;;;;;14.27;8.30;;;;;;;;;;5230179;28;20025;-74
2022/06/21 04:39:10;;;;;;;15.47;8.33;;;;;;;;;;5228916;28;20435;-74
2022/06/21 04:41:41;;;;;;;12.18;8.88;;;;;;;;;;5230301;28;20057;-74
2022/06/21 04:44:18;;;;;;;11.68;7.20;;;;;;;;;;5229490;28;20079;-74
2022/06/21 04:46:49;;;;;;;12.23;7.83;;;;;;;;;;5229551;28;20021;-74
2022/06/21 04:49:23;;;;;;;14.10;7.65;;;;;;;;;;5228544;28;20529;-74
2022/06/21 04:51:59;;;;;;;17.73;7.90;;;;;;;;;;5227015;28;20432;-74
2022/06/21 04:54:32;;;;;;;9.80;7.50;;;;;;;;;;5209664;28;20691;-74
2022/06/21 04:57:06;;;;;;;9.83;7.27;;;;;;;;;;5218411;28;20014;-74
2022/06/21 04:59:45;;;;;;;15.00;7.05;;;;;;;;;;5231108;28;20021;-74
2022/06/21 05:02:16;;;;;;;14.67;7.60;;;;;;;;;;5228373;28;20026;-74
2022/06/21 05:04:50;;;;;;;18.20;7.97;;;;;;;;;;5227956;28;20037;-74
2022/06/21 05:07:22;;;;;;;16.10;7.93;;;;;;;;;;5228009;28;20499;-74
2022/06/21 05:09:54;;;;;;;15.73;7.43;;;;;;;;;;5227552;28;20033;-74
2022/06/21 05:12:31;;;;;;;13.17;7.77;;;;;;;;;;5228823;28;20018;-74
2022/06/21 05:15:14;;;;;;;14.07;6.83;;;;;;;;;;5228413;28;20040;-74
2022/06/21 05:17:48;;;;;;;13.43;6.97;;;;;;;;;;5226000;28;20106;-74
2022/06/21 05:20:21;;;;;;;10.38;5.63;;;;;;;;;;5225755;28;20025;-74
2022/06/21 05:22:54;;;;;;;12.80;6.43;;;;;;;;;;5227718;28;20037;-74
2022/06/21 05:25:36;;;;;;;12.83;6.63;;;;;;;;;;5226914;28;20566;-74
2022/06/21 05:28:17;;;;;;;16.30;6.17;;;;;;;;;;5228298;28;20017;-74
2022/06/21 05:31:09;;;;;;;10.40;5.07;;;;;;;;;;5228122;28;20044;-74
2022/06/21 05:33:45;;;;;;;14.13;5.60;;;;;;;;;;5228652;28;20124;-74
2022/06/21 05:36:21;;;;;;;11.13;5.60;;;;;;;;;;5225713;28;20112;-74
2022/06/21 05:38:55;;;;;;;12.03;5.63;;;;;;;;;;5227889;28;20104;-74
2022/06/21 05:41:30;;;;;;;12.43;5.47;;;;;;;;;;5228608;28;20079;-74
2022/06/21 05:44:01;;;;;;;22.13;6.50;;;;;;;;;;5230706;28;20439;-74
2022/06/21 05:46:34;;;;;;;10.20;4.70;;;;;;;;;;5228407;28;20029;-74
2022/06/21 05:49:11;;;;;;;11.93;4.80;;;;;;;;;;5225991;28;20022;-74
2022/06/21 05:51:42;;;;;;;10.77;5.17;;;;;;;;;;5227843;28;20032;-74
2022/06/21 05:54:14;;;;;;;10.63;5.27;;;;;;;;;;5229380;28;20120;-74
2022/06/21 05:56:46;;;;;;;7.30;4.83;;;;;;;;;;5225629;28;20534;-74
2022/06/21 05:59:18;;;;;;;10.40;4.57;;;;;;;;;;5227167;28;20021;-74
2022/06/21 06:01:53;;;;;;;11.77;5.47;;;;;;;;;;5228185;28;20033;-75
2022/06/21 06:04:33;;;;;;;9.40;4.85;;;;;;;;;;5228171;28;20036;-75
2022/06/21 06:07:05;;;;;;;8.67;4.77;;;;;;;;;;5227380;28;20077;-74
2022/06/21 06:09:38;;;;;;;9.97;5.07;;;;;;;;;;5228065;28;20099;-74
2022/06/21 06:12:20;;;;;;;13.67;4.57;;;;;;;;;;5226559;28;20029;-74
2022/06/21 06:14:53;;;;;;;10.07;4.70;;;;;;;;;;5228207;28;20037;-74
2022/06/21 06:17:39;;;;;;;16.10;4.90;;;;;;;;;;5227009;28;20876;-75
2022/06/21 06:20:13;;;;;;;12.70;3.77;;;;;;;;;;5224700;28;20480;-74
2022/06/21 06:22:48;;;;;;;5.97;3.65;;;;;;;;;;5227093;28;20025;-74
2022/06/21 06:25:22;;;;;;;7.83;4.07;;;;;;;;;;5226183;28;20025;-74
2022/06/21 06:28:00;;;;;;;12.70;4.75;;;;;;;;;;5227772;28;20100;-74
2022/06/21 06:30:39;;;;;;;9.57;3.60;;;;;;;;;;5226476;28;20045;-74
2022/06/21 06:33:24;;;;;;;8.00;3.00;;;;;;;;;;5223932;28;20547;-74
2022/06/21 06:35:56;;;;;;;10.13;3.00;;;;;;;;;;5227165;28;20026;-74
2022/06/21 06:38:28;;;;;;;7.30;3.17;;;;;;;;;;5228204;28;20021;-74
2022/06/21 06:41:03;;;;;;;6.70;2.50;;;;;;;;;;5227188;28;20029;-74
2022/06/21 06:43:37;;;;;;;9.90;3.17;;;;;;;;;;5227869;28;20025;-73
2022/06/21 06:46:13;;;;;;;8.80;2.80;;;;;;;;;;5225628;28;20026;-74
2022/06/21 06:48:45;;;;;;;9.53;3.20;;;;;;;;;;5227041;28;20032;-74
2022/06/21 06:51:37;;;;;;;13.50;4.30;;;;;;;;;;5230473;28;20030;-74
2022/06/21 06:54:22;;;;;;;7.67;3.17;;;;;;;;;;5230779;28;20091;-74
2022/06/21 06:56:59;;;;;;;7.47;3.27;;;;;;;;;;5231265;28;20080;-74
2022/06/21 06:59:30;;;;;;;9.20;3.23;;;;;;;;;;5229963;28;20017;-74
2022/06/21 07:02:04;;;;;;;8.50;3.50;;;;;;;;;;5229544;28;20343;-74
2022/06/21 07:04:35;;;;;;;;;;;;;;;;;;5228334;28;20010;-74
2022/06/21 07:07:27;;;;;;;10.52;3.58;;;;;;;;;;5220130;28;19932;-74
2022/06/21 07:10:02;;;;;;;12.03;3.00;;;;;;;;;;5207782;28;20062;-74
2022/06/21 07:12:33;;;;;;;11.63;3.80;;;;;;;;;;5228168;28;20060;-75
2022/06/21 07:15:05;;;;;;;11.20;4.20;;;;;;;;;;5229280;28;20018;-75
2022/06/21 07:17:39;;;;;;;8.57;3.63;;;;;;;;;;5230063;28;20024;-74
2022/06/21 07:20:24;;;;;;;13.63;3.50;;;;;;;;;;5228683;28;20094;-75
2022/06/21 07:22:56;;;;;;;9.20;3.10;;;;;;;;;;5231154;28;20022;-75
2022/06/21 07:25:40;;;;;;;13.93;4.07;;;;;;;;;;5229414;28;20017;-75
2022/06/21 07:28:11;;;;;;;;;;;;;;;;;;5228943;28;20025;-75
2022/06/21 07:30:45;;;;;;;10.75;3.08;;;;;;;;;;5212958;28;20008;-75
2022/06/21 07:33:21;;;;;;;9.75;4.22;;;;;;;;;;5229324;28;20018;-75
2022/06/21 07:36:11;;;;;;;12.43;3.47;;;;;;;;;;5229810;28;20391;-75
2022/06/21 07:39:04;;;;;;;9.47;3.00;;;;;;;;;;5229903;28;20468;-75
2022/06/21 07:41:42;;;;;;;10.83;2.83;;;;;;;;;;5229140;28;20427;-75
2022/06/21 07:44:24;;;;;;;10.05;3.60;;;;;;;;;;5230683;28;20028;-75
2022/06/21 07:46:58;;;;;;;11.18;3.20;;;;;;;;;;5228258;28;20021;-75
2022/06/21 07:49:42;;;;;;;8.25;3.17;;;;;;;;;;5229553;28;20040;-75
2022/06/21 07:52:33;;;;;;;9.63;2.90;;;;;;;;;;5222759;28;20049;-75
2022/06/21 07:55:14;;;;;;;12.05;3.10;;;;;;;;;;5227431;28;20548;-75
2022/06/21 07:57:49;;;;;;;12.43;3.25;;;;;;;;;;5228583;28;20025;-76
2022/06/21 08:00:21;;;;;;;7.88;2.70;;;;;;;;;;5228303;28;20460;-74
2022/06/21 08:08:50;;;;;;;7.10;3.75;;;;;;;;;;5232303;28;20267;-72
2022/06/21 08:11:26;;;;;;;7.00;2.80;;;;;;;;;;5232138;28;20120;-74
2022/06/21 08:13:58;;;;;;;6.43;2.83;;;;;;;;;;5228982;28;20097;-71
2022/06/21 08:16:34;;;;;;;7.82;3.22;;;;;;;;;;5230109;28;20108;-77
2022/06/21 08:19:09;;;;;;;8.63;3.03;;;;;;;;;;5228340;28;20083;-76
2022/06/21 08:21:45;;;;;;;6.53;2.63;;;;;;;;;;5228768;28;20033;-76
2022/06/21 08:24:22;;;;;;;10.68;3.15;;;;;;;;;;5229516;28;20376;-76
2022/06/21 08:26:58;;;;;;;15.05;3.85;;;;;;;;;;5229669;28;20022;-74
2022/06/21 08:29:33;;;;;;;10.77;2.35;;;;;;;;;;5229599;28;20021;-75
2022/06/21 08:32:13;;;;;;;9.98;3.00;;;;;;;;;;5229154;28;20052;-76
2022/06/21 08:34:49;;;;;;;5.90;2.05;;;;;;;;;;5228321;28;20036;-75
2022/06/21 08:37:40;;;;;;;8.15;3.15;;;;;;;;;;5229610;28;20029;-74
2022/06/21 08:40:14;;;;;;;6.65;2.85;;;;;;;;;;5225855;28;20044;-74
2022/06/21 08:42:46;;;;;;;8.05;3.47;;;;;;;;;;5226627;28;20026;-76
2022/06/21 08:45:42;;;;;;;7.85;2.47;;;;;;;;;;5227415;28;20024;-77
2022/06/21 08:48:32;;;;;;;7.65;3.03;;;;;;;;;;5227014;28;20319;-75
2022/06/21 08:51:06;;;;;;;8.70;3.00;;;;;;;;;;5222915;28;20087;-76
2022/06/21 08:53:37;;;;;;;;;;;;;;;;;;5221434;28;20025;-83
2022/06/21 08:56:27;;;;;;;7.88;3.20;;;;;;;;;;5217515;28;19991;-81
2022/06/21 08:59:15;;;;;;;8.27;2.88;;;;;;;;;;5218185;28;20066;-82
2022/06/21 09:02:05;;;;;;;12.07;3.33;;;;;;;;;;5215924;28;20075;-79
2022/06/21 09:04:43;;;;;;;8.68;2.95;;;;;;;;;;5217435;28;20652;-84
2022/06/21 09:07:17;;;;;;;10.57;3.80;;;;;;;;;;5214684;28;20263;-80
2022/06/21 09:09:57;;;;;;;6.03;3.03;;;;;;;;;;5219789;28;20553;-84
2022/06/21 09:12:29;;;;;;;8.10;3.20;;;;;;;;;;5219529;28;20399;-82
2022/06/21 09:15:18;;;;;;;7.68;2.72;;;;;;;;;;5218304;28;19997;-79
2022/06/21 09:18:14;;;;;;;7.78;2.60;;;;;;;;;;5217240;28;20022;-72
2022/06/21 09:20:54;;;;;;;9.50;2.60;;;;;;;;;;5217093;28;20125;-72
2022/06/21 09:23:25;;;;;;;7.65;2.88;;;;;;;;;;5218443;28;20037;-73
2022/06/21 09:26:04;;;;;;;8.23;2.95;;;;;;;;;;5217397;28;20443;-73
2022/06/21 09:28:44;;;;;;;11.40;2.88;;;;;;;;;;5216457;28;21960;-72
2022/06/21 09:31:18;;;;;;;11.43;3.33;;;;;;;;;;5219307;28;20037;-83
2022/06/21 09:33:55;;;;;;;7.22;3.03;;;;;;;;;;5219031;28;20057;-82
2022/06/21 09:36:40;;;;;;;9.05;2.80;;;;;;;;;;5221651;28;20025;-82
2022/06/21 09:39:21;;;;;;;6.78;2.83;;;;;;;;;;5221014;28;20380;-83
2022/06/21 09:42:06;;;;;;;11.90;3.60;;;;;;;;;;5221385;28;20085;-87
2022/06/21 09:44:46;;;;;;;12.48;3.60;;;;;;;;;;5220276;28;20889;-87
2022/06/21 09:47:17;;;;;;;5.32;2.88;;;;;;;;;;5220157;28;20076;-87
2022/06/21 09:49:55;;;;;;;9.45;2.88;;;;;;;;;;5218462;28;20155;-87
2022/06/21 09:52:46;;;;;;;10.90;3.03;;;;;;;;;;5217798;28;20025;-88
2022/06/21 09:55:26;;;;;;;9.70;2.38;;;;;;;;;;5219394;28;20025;-87
2022/06/21 09:58:18;;;;;;;8.82;3.13;;;;;;;;;;5215712;28;21586;-74
2022/06/21 10:01:05;;;;;;;5.72;2.60;;;;;;;;;;5216815;28;20292;-81
2022/06/21 10:03:45;;;;;;;9.77;3.30;;;;;;;;;;5217604;28;20056;-81
2022/06/21 10:06:19;;;;;;;5.07;2.45;;;;;;;;;;5217770;28;20592;-82
2022/06/21 10:08:50;;;;;;;;;;;;;;;;;;5218580;28;20041;-73
2022/06/21 10:11:37;;;;;;;8.00;2.72;;;;;;;;;;5216460;28;19979;-81
2022/06/21 10:14:20;;;;;;;8.00;3.20;;;;;;;;;;5217276;28;20852;-80
2022/06/21 10:17:15;;;;;;;6.22;2.58;;;;;;;;;;5219216;28;20495;-85
2022/06/21 10:20:07;;;;;;;9.27;3.08;;;;;;;;;;5216729;28;20607;-81
2022/06/21 10:22:41;;;;;;;6.57;2.95;;;;;;;;;;5219127;28;20041;-79
2022/06/21 10:25:24;;;;;;;7.63;3.10;;;;;;;;;;5222429;28;20038;-76
2022/06/21 10:28:09;;;;;;;9.45;3.03;;;;;;;;;;5218792;28;20051;-74
2022/06/21 10:30:53;;;;;;;7.95;3.17;;;;;;;;;;5223867;28;20487;-80
2022/06/21 10:33:37;;;;;;;10.40;3.10;;;;;;;;;;5219291;28;20028;-87
2022/06/21 10:36:08;;;;;;;6.03;3.03;;;;;;;;;;5223845;28;20518;-79
2022/06/21 10:38:47;;;;;;;7.88;2.67;;;;;;;;;;5222331;28;20021;-74
2022/06/21 10:41:21;;;;;;;9.68;2.92;;;;;;;;;;5219963;28;20033;-82
2022/06/21 10:44:04;;;;;;;8.43;3.33;;;;;;;;;;5221498;28;20467;-74
2022/06/21 10:46:49;;;;;;;6.97;3.95;;;;;;;;;;5220139;28;20538;-76
2022/06/21 10:49:24;;;;;;;7.60;3.15;;;;;;;;;;5222114;28;20181;-79
2022/06/21 10:52:12;;;;;;;10.30;3.83;;;;;;;;;;5219755;28;20029;-78
2022/06/21 10:54:55;;;;;;;11.20;3.30;;;;;;;;;;5221987;28;20037;-79
2022/06/21 10:57:26;;;;;;;6.40;2.93;;;;;;;;;;5221966;28;20042;-82
2022/06/21 11:03:05;;;;;;;8.05;3.15;;;;;;;;;;5220442;28;20057;-75
2022/06/21 11:06:00;;;;;;;8.07;3.47;;;;;;;;;;5221475;28;20091;-74
2022/06/21 11:08:50;;;;;;;9.07;3.42;;;;;;;;;;5220538;28;20052;-74
2022/06/21 11:11:26;;;;;;;8.68;3.38;;;;;;;;;;5218832;28;20034;-76
2022/06/21 11:14:10;;;;;;;9.57;3.33;;;;;;;;;;5218738;28;20037;-81
2022/06/21 11:16:56;;;;;;;7.85;3.20;;;;;;;;;;5220894;28;20116;-76
2022/06/21 11:20:06;;;;;;;8.32;3.15;;;;;;;;;;5220063;28;20146;-76
2022/06/21 11:22:55;;;;;;;9.32;3.08;;;;;;;;;;5161662;28;20490;-78
2022/06/21 11:25:40;;;;;;;96.55;26.88;;;;;;;;;;5149807;28;20072;-73
2022/06/21 11:28:14;;;;;;;9.82;4.95;;;;;;;;;;5208782;28;20049;-72
2022/06/21 11:31:04;;;;;;;8.82;3.90;;;;;;;;;;5220201;28;20083;-74
2022/06/21 11:33:38;;;;;;;9.52;3.63;;;;;;;;;;5217915;28;20056;-77
2022/06/21 11:36:13;;;;;;;7.95;3.60;;;;;;;;;;5220179;28;20071;-74
2022/06/21 11:38:46;;;;;;;11.73;4.20;;;;;;;;;;5219177;28;20210;-73
2022/06/21 11:44:27;;;;;;;5.88;2.90;;;;;;;;;;5219988;28;20041;-73
2022/06/21 11:47:03;;;;;;;6.85;3.33;;;;;;;;;;5218220;28;20384;-73
2022/06/21 11:49:47;;;;;;;8.73;3.65;;;;;;;;;;5217350;28;20033;-72
2022/06/21 11:52:28;;;;;;;10.85;3.03;;;;;;;;;;5220329;28;20030;-72
2022/06/21 11:55:17;;;;;;;7.65;3.20;;;;;;;;;;5219487;28;20038;-72
2022/06/21 11:58:05;;;;;;;9.30;3.38;;;;;;;;;;5218413;28;20400;-74
2022/06/21 12:00:43;;;;;;;8.93;3.30;;;;;;;;;;5219684;28;20484;-71
2022/06/21 12:03:20;;;;;;;8.98;3.40;;;;;;;;;;5217094;28;20236;-72
2022/06/21 12:05:54;;;;;;;7.35;3.60;;;;;;;;;;5217910;28;20036;-73
2022/06/21 12:08:39;;;;;;;6.60;3.08;;;;;;;;;;5218805;28;20064;-73
2022/06/21 12:11:24;;;;;;;9.70;3.92;;;;;;;;;;5217427;28;20048;-73
2022/06/21 12:13:56;;;;;;;9.68;3.28;;;;;;;;;;5219320;28;20175;-78
2022/06/21 12:16:43;;;;;;;11.88;3.80;;;;;;;;;;5218677;28;20029;-84
2022/06/21 12:19:28;;;;;;;9.88;2.85;;;;;;;;;;5219042;28;20084;-84
2022/06/21 12:22:18;;;;;;;6.82;3.45;;;;;;;;;;5215951;28;20132;-82
2022/06/21 12:24:49;;;;;;;9.50;3.53;;;;;;;;;;5218822;28;20038;-80
2022/06/21 12:27:21;;;;;;;9.50;3.60;;;;;;;;;;5216347;28;20037;-76
2022/06/21 12:30:16;;;;;;;9.73;3.83;;;;;;;;;;5217741;28;20029;-75
2022/06/21 12:32:48;;;;;;;7.57;3.30;;;;;;;;;;5207721;28;20041;-73
2022/06/21 12:35:20;;;;;;;5.65;2.30;;;;;;;;;;5216283;28;20112;-71
2022/06/21 12:37:52;;;;;;;5.38;2.85;;;;;;;;;;5217242;28;20029;-84
2022/06/21 12:40:29;;;;;;;5.22;2.47;;;;;;;;;;5218446;28;20458;-76
2022/06/21 12:43:03;;;;;;;6.93;2.17;;;;;;;;;;5222286;28;20487;-77
2022/06/21 12:45:53;;;;;;;8.63;2.42;;;;;;;;;;5216645;28;20188;-70
2022/06/21 12:48:24;;;;;;;12.82;2.75;;;;;;;;;;5214645;28;20063;-78
2022/06/21 12:51:15;;;;;;;5.86;2.42;;;;;;;;;;5216734;28;20815;-79
2022/06/21 12:53:48;;;;;;;6.55;3.05;;;;;;;;;;5215573;28;20048;-72
2022/06/21 12:56:42;;;;;;;5.82;2.78;;;;;;;;;;5218941;28;20045;-71
2022/06/21 12:59:28;;;;;;;6.68;2.95;;;;;;;;;;5189488;28;20057;-71
2022/06/21 13:02:19;;;;;;;6.22;2.72;;;;;;;;;;5217698;28;20407;-70
2022/06/21 13:05:09;;;;;;;8.77;2.72;;;;;;;;;;5215360;28;20043;-70
2022/06/21 13:07:59;;;;;;;6.05;1.60;;;;;;;;;;5216603;28;20053;-80
2022/06/21 13:10:30;;;;;;;5.20;1.50;;;;;;;;;;5214330;28;20114;-72
2022/06/21 13:13:04;;;;;;;4.66;1.68;;;;;;;;;;5214861;28;20017;-75
2022/06/21 13:15:54;;;;;;;18.50;1.83;;;;;;;;;;5218874;28;20022;-71
2022/06/21 13:18:37;;;;;;;6.07;1.88;;;;;;;;;;5217885;28;20026;-69
2022/06/21 13:21:17;;;;;;;4.05;1.73;;;;;;;;;;5213990;28;20025;-75
2022/06/21 13:23:51;;;;;;;4.68;1.90;;;;;;;;;;5216865;28;20043;-68
2022/06/21 13:26:47;;;;;;;5.40;1.50;;;;;;;;;;5217368;28;20025;-70
2022/06/21 13:29:23;;;;;;;5.07;1.65;;;;;;;;;;5217249;28;20101;-71
2022/06/21 13:31:58;;;;;;;3.42;1.52;;;;;;;;;;5215993;28;20064;-73
2022/06/21 13:34:38;;;;;;;5.38;1.42;;;;;;;;;;5215749;28;20029;-77
2022/06/21 13:37:12;;;;;;;7.28;1.60;;;;;;;;;;5216530;28;20612;-71
2022/06/21 13:39:48;;;;;;;5.82;1.70;;;;;;;;;;5217590;28;20120;-76
2022/06/21 13:42:38;;;;;;;5.18;1.50;;;;;;;;;;5215953;28;20040;-77
2022/06/21 13:45:28;;;;;;;4.05;1.35;;;;;;;;;;5215964;28;20490;-79
2022/06/21 13:48:03;;;;;;;4.68;1.20;;;;;;;;;;5215969;28;20022;-72
2022/06/21 13:50:44;;;;;;;4.68;1.85;;;;;;;;;;5218271;28;20136;-70
2022/06/21 13:53:19;;;;;;;6.30;2.28;;;;;;;;;;5218461;28;20029;-75
2022/06/21 13:55:54;;;;;;;5.45;1.67;;;;;;;;;;5211994;28;20645;-71
2022/06/21 13:58:32;;;;;;;4.55;1.55;;;;;;;;;;5214856;28;20017;-77
2022/06/21 14:01:22;;;;;;;5.20;1.42;;;;;;;;;;5214879;28;20029;-84
2022/06/21 14:03:53;;;;;;;5.38;1.40;;;;;;;;;;5216632;28;20176;-81
2022/06/21 14:06:25;;;;;;;6.10;1.30;;;;;;;;;;5215282;28;20046;-71
2022/06/21 14:09:00;;;;;;;11.72;2.38;;;;;;;;;;5215601;28;20077;-70
2022/06/21 14:11:56;;;;;;;6.40;1.40;;;;;;;;;;5216587;28;20040;-77
2022/06/21 14:14:27;;;;;;;4.93;1.75;;;;;;;;;;5208881;28;20041;-76
2022/06/21 14:17:03;;;;;;;3.17;1.17;;;;;;;;;;5216569;28;20036;-78
2022/06/21 14:19:34;;;;;;;3.72;1.20;;;;;;;;;;5215563;28;20024;-75
2022/06/21 14:22:38;;;;;;;5.10;1.23;;;;;;;;;;5215943;28;20481;-75
2022/06/21 14:25:21;;;;;;;9.27;1.83;;;;;;;;;;5171983;28;20467;-75
2022/06/21 14:27:56;;;;;;;6.75;1.40;;;;;;;;;;5217634;28;20067;-74
2022/06/21 14:30:32;;;;;;;5.68;1.20;;;;;;;;;;5218876;28;20096;-74
2022/06/21 14:33:10;;;;;;;4.57;2.13;;;;;;;;;;5225384;28;20045;-76
2022/06/21 14:35:46;;;;;;;9.23;2.30;;;;;;;;;;5227928;28;20522;-78
2022/06/21 14:38:27;;;;;;;6.50;1.55;;;;;;;;;;5226052;28;20033;-74
2022/06/21 14:41:16;;;;;;;10.85;1.30;;;;;;;;;;5218170;28;20096;-73
2022/06/21 14:43:52;;;;;;;4.65;1.35;;;;;;;;;;5218488;28;20025;-73
2022/06/21 14:46:27;;;;;;;5.55;1.55;;;;;;;;;;5226661;28;20021;-73
2022/06/21 14:49:11;;;;;;;6.97;1.42;;;;;;;;;;5224582;28;20116;-74
2022/06/21 14:51:48;;;;;;;3.97;1.40;;;;;;;;;;5226720;28;20071;-73
2022/06/21 14:54:38;;;;;;;4.45;1.33;;;;;;;;;;5221941;28;20018;-74
2022/06/21 14:57:09;;;;;;;3.72;1.10;;;;;;;;;;5226374;28;20138;-75
2022/06/21 14:59:52;;;;;;;4.82;1.20;;;;;;;;;;5226167;28;20468;-75
2022/06/21 15:02:39;;;;;;;4.75;1.20;;;;;;;;;;5223076;28;20138;-75
2022/06/21 15:05:17;;;;;;;6.20;1.90;;;;;;;;;;5225650;28;20108;-75
2022/06/21 15:07:54;;;;;;;5.35;1.15;;;;;;;;;;5223539;28;20045;-77
2022/06/21 15:10:27;;;;;;;8.73;1.42;;;;;;;;;;5219177;28;20132;-84
2022/06/21 15:13:05;;;;;;;6.40;1.38;;;;;;;;;;5217578;28;20022;-74
2022/06/21 15:15:38;;;;;;;4.88;1.10;;;;;;;;;;5219758;28;20025;-72
2022/06/21 15:18:23;;;;;;;7.75;1.48;;;;;;;;;;5217741;28;20076;-68
2022/06/21 15:21:03;;;;;;;8.73;1.90;;;;;;;;;;5217648;28;20618;-75
2022/06/21 15:23:38;;;;;;;5.25;1.40;;;;;;;;;;5218933;28;20475;-71
2022/06/21 15:26:16;;;;;;;9.68;1.60;;;;;;;;;;5215010;28;20045;-75
2022/06/21 15:28:49;;;;;;;8.38;1.92;;;;;;;;;;5219091;28;20085;-70
2022/06/21 15:31:23;;;;;;;8.77;2.60;;;;;;;;;;5221851;28;20118;-75
2022/06/21 15:33:57;;;;;;;9.23;1.45;;;;;;;;;;5217042;28;20056;-74
2022/06/21 15:36:32;;;;;;;8.02;1.63;;;;;;;;;;5220246;28;20044;-72
2022/06/21 15:39:13;;;;;;;14.95;2.78;;;;;;;;;;5218316;28;20030;-73
2022/06/21 15:41:51;;;;;;;6.10;1.50;;;;;;;;;;5220115;28;20028;-74
2022/06/21 15:44:28;;;;;;;5.97;1.50;;;;;;;;;;5219943;28;20014;-73
2022/06/21 15:50:13;;;;;;;7.25;1.50;;;;;;;;;;5218963;28;20037;-73
2022/06/21 15:53:17;;;;;;;6.13;1.45;;;;;;;;;;5219157;28;20056;-72
2022/06/21 15:55:49;;;;;;;4.82;1.60;;;;;;;;;;5185665;28;20662;-74
2022/06/21 15:58:29;;;;;;;5.20;1.80;;;;;;;;;;5219809;28;20055;-73
2022/06/21 16:01:10;;;;;;;4.43;1.42;;;;;;;;;;5218716;28;21607;-77